Time;durP1;ratioP1;P1;durP2;ratioP2;P2;SDS_P1;SDS_P2;PMS_P1;PMS_P2;Temp;Humidity;BMP_temperature;BMP_pressure;BME280_temperature;BME280_humidity;BME280_pressure;Samples;Min_cycle;Max_cycle;Signal;HPM_P1;HPM_P2
2021/12/01 14:35:16;;;;;;;0.38;0.38;;;;;;;1.17;73.88;96193.81;5111811;27;20424;-85
2021/12/01 14:37:42;;;;;;;2.05;0.70;;;;;;;1.25;75.31;96190.69;5110152;28;20043;-82
2021/12/01 14:40:13;;;;;;;0.63;0.63;;;;;;;1.32;76.43;96185.97;5109880;28;20032;-77
2021/12/01 14:42:48;;;;;;;0.68;0.68;;;;;;;1.36;76.92;96186.34;5102024;28;20066;-75
2021/12/01 14:45:16;;;;;;;1.13;0.85;;;;;;;1.38;77.70;96185.03;5106903;28;20436;-80
2021/12/01 14:47:42;;;;;;;1.20;1.10;;;;;;;1.40;78.12;96177.50;5111289;28;20028;-80
2021/12/01 14:50:22;;;;;;;2.72;1.70;;;;;;;1.42;78.37;96169.16;5108233;28;20073;-82
2021/12/01 14:52:48;;;;;;;1.17;1.13;;;;;;;1.40;78.74;96153.16;5110406;28;20439;-82
2021/12/01 14:55:21;;;;;;;1.75;1.65;;;;;;;1.36;78.98;96141.19;5107883;28;20024;-82
2021/12/01 14:57:57;;;;;;;1.27;1.25;;;;;;;1.33;79.32;96138.16;5108036;28;20032;-84
2021/12/01 15:00:29;;;;;;;1.00;1.00;;;;;;;1.29;79.63;96142.41;5104886;28;20028;-78
2021/12/01 15:03:08;;;;;;;4.03;1.13;;;;;;;1.28;79.74;96140.75;5106417;28;20050;-76
2021/12/01 15:05:51;;;;;;;0.70;0.70;;;;;;;1.27;79.93;96161.56;5106202;28;20034;-79
2021/12/01 15:08:28;;;;;;;2.15;1.95;;;;;;;1.28;80.07;96167.78;5113601;28;20040;-83
2021/12/01 15:11:23;;;;;;;2.72;1.23;;;;;;;1.28;80.09;96144.28;5110745;28;20059;-83
2021/12/01 15:13:50;;;;;;;2.23;0.90;;;;;;;1.27;80.27;96133.72;5105418;28;20138;-76
2021/12/01 15:16:27;;;;;;;4.35;1.23;;;;;;;1.18;80.23;96134.09;5109235;28;20035;-81
2021/12/01 15:19:11;;;;;;;3.72;0.50;;;;;;;1.12;80.69;96123.41;5106506;28;20053;-79
2021/12/01 15:21:43;;;;;;;1.30;1.30;;;;;;;1.05;80.68;96113.56;5106240;28;20537;-79
2021/12/01 15:24:09;;;;;;;0.65;0.65;;;;;;;1.02;80.76;96132.97;5110841;28;20031;-83
2021/12/01 15:26:40;;;;;;;2.05;1.17;;;;;;;1.01;80.90;96128.63;5111857;28;20028;-83
2021/12/01 15:43:50;;;;;;;0.63;0.63;;;;;;;0.74;81.21;96095.94;4716616;26;20061;-80
2021/12/01 15:46:57;;;;;;;0.93;0.93;;;;;;;0.85;81.00;96099.66;5047576;28;20049;-79
2021/12/01 15:49:23;;;;;;;3.60;1.35;;;;;;;0.82;81.32;96094.75;5043507;28;20043;-86
2021/12/01 15:51:50;;;;;;;1.92;1.00;;;;;;;0.82;81.36;96078.53;5069016;28;20412;-85
2021/12/01 15:54:17;;;;;;;1.15;1.13;;;;;;;0.83;81.53;96063.97;5076896;28;20039;-82
2021/12/01 15:56:43;;;;;;;3.63;1.95;;;;;;;0.81;81.58;96058.81;5077872;28;20108;-84
2021/12/01 15:59:09;;;;;;;2.05;1.02;;;;;;;0.79;81.69;96060.09;5061484;28;20036;-82
2021/12/01 16:01:35;;;;;;;1.05;1.05;;;;;;;0.79;81.83;96058.22;5058718;28;20029;-83
2021/12/01 16:04:01;;;;;;;0.90;0.88;;;;;;;0.82;81.91;96063.13;5055232;28;20036;-82
2021/12/01 16:06:26;;;;;;;2.28;1.58;;;;;;;0.84;82.12;96058.34;5052561;28;20162;-76
2021/12/01 16:08:52;;;;;;;1.15;1.15;;;;;;;0.86;81.97;96053.50;5046015;28;20028;-84
2021/12/01 16:11:30;;;;;;;2.42;1.42;;;;;;;0.90;82.01;96026.00;5065810;28;20263;-79
2021/12/01 16:13:56;;;;;;;1.20;1.10;;;;;;;0.91;81.94;96016.84;5040103;28;20491;-78
2021/12/01 16:16:22;;;;;;;3.72;2.17;;;;;;;0.91;82.12;96023.06;5060161;28;20040;-78
2021/12/01 16:18:48;;;;;;;1.33;1.20;;;;;;;0.95;82.23;96018.81;5065655;28;20482;-76
2021/12/01 16:21:14;;;;;;;0.95;0.95;;;;;;;0.98;82.34;95994.00;5046844;28;20525;-84
2021/12/01 16:23:40;;;;;;;1.85;1.63;;;;;;;1.01;82.14;95988.13;5062617;28;20040;-68
2021/12/01 16:26:08;;;;;;;1.33;1.25;;;;;;;1.01;82.25;95993.53;5068565;28;20406;-72
2021/12/01 16:28:34;;;;;;;1.08;1.08;;;;;;;0.99;82.19;95982.16;5033400;28;20037;-74
2021/12/01 16:31:01;;;;;;;1.55;1.50;;;;;;;1.00;82.22;95966.75;5040803;28;20032;-74
2021/12/01 16:33:29;;;;;;;2.20;2.05;;;;;;;0.99;82.58;95976.75;5054332;28;20057;-73
2021/12/01 16:35:57;;;;;;;2.35;1.13;;;;;;;0.99;82.57;95957.81;5055514;28;20051;-78
2021/12/01 16:38:23;;;;;;;0.68;0.68;;;;;;;1.04;82.57;95943.59;5053270;28;20438;-75
2021/12/01 16:40:49;;;;;;;1.60;1.33;;;;;;;1.07;82.58;95920.66;5052701;28;20037;-74
2021/12/01 16:43:18;;;;;;;1.98;1.27;;;;;;;1.11;82.66;95932.63;5056982;28;20167;-86
2021/12/01 16:45:45;;;;;;;5.18;2.17;;;;;;;1.13;82.59;95920.47;5066971;28;20025;-73
2021/12/01 16:48:11;;;;;;;2.25;1.25;;;;;;;1.17;82.49;95921.63;5041425;28;20036;-77
2021/12/01 16:50:38;;;;;;;4.38;1.23;;;;;;;1.20;82.73;95906.81;5064031;28;20544;-82
2021/12/01 16:53:04;;;;;;;4.75;2.70;;;;;;;1.20;82.63;95902.22;5074911;28;20032;-83
2021/12/01 16:55:31;;;;;;;5.20;2.63;;;;;;;1.24;82.56;95913.38;5077771;28;20025;-84
2021/12/01 16:57:58;;;;;;;8.02;1.17;;;;;;;1.28;82.58;95914.53;5082964;28;20040;-85
2021/12/01 17:00:40;;;;;;;1.33;0.88;;;;;;;1.29;82.74;95912.63;5076465;28;20074;-78
2021/12/01 17:03:10;;;;;;;2.13;1.73;;;;;;;1.31;82.62;95887.00;5079868;28;20080;-86
2021/12/01 17:05:37;;;;;;;4.47;1.75;;;;;;;1.33;82.67;95884.84;5061835;28;20560;-78
2021/12/01 17:10:36;;;;;;;0.80;0.80;;;;;;;1.37;82.75;95874.34;5069274;28;20068;-76
2021/12/01 17:13:03;;;;;;;1.75;1.35;;;;;;;1.36;82.88;95876.25;5070977;28;20009;-79
2021/12/01 17:15:30;;;;;;;0.75;0.75;;;;;;;1.34;82.96;95891.91;5071044;28;20028;-80
2021/12/01 17:17:56;;;;;;;1.08;1.02;;;;;;;1.31;82.98;95880.75;5063943;28;20029;-79
2021/12/01 17:20:22;;;;;;;2.28;1.63;;;;;;;1.27;83.39;95883.16;5056028;28;20060;-77
2021/12/01 17:22:48;;;;;;;1.55;1.42;;;;;;;1.24;83.26;95878.22;5053145;28;20033;-77
2021/12/01 17:25:16;;;;;;;0.90;0.90;;;;;;;1.24;83.37;95870.13;5035378;28;20147;-73
2021/12/01 17:27:44;;;;;;;1.10;1.10;;;;;;;1.22;83.52;95851.47;5052441;28;20029;-73
2021/12/01 17:30:15;;;;;;;1.92;1.25;;;;;;;1.20;83.38;95825.72;5050650;28;20036;-74
2021/12/01 17:32:41;;;;;;;1.58;1.13;;;;;;;1.18;83.59;95811.66;5052079;28;20128;-74
2021/12/01 17:35:08;;;;;;;3.15;1.50;;;;;;;1.20;83.65;95806.81;5049787;28;20032;-72
2021/12/01 17:37:34;;;;;;;3.20;1.17;;;;;;;1.22;83.75;95807.38;5052359;28;20427;-71
2021/12/01 17:40:01;;;;;;;2.45;1.48;;;;;;;1.21;83.68;95787.66;5049501;28;20067;-72
2021/12/01 17:42:27;;;;;;;1.33;1.27;;;;;;;1.27;83.83;95802.06;5052810;28;20048;-74
2021/12/01 17:44:56;;;;;;;1.83;1.73;;;;;;;1.30;83.77;95839.38;5052446;28;20055;-74
2021/12/01 17:47:22;;;;;;;0.80;0.80;;;;;;;1.33;83.59;95806.44;5048457;28;20029;-73
2021/12/01 17:49:49;;;;;;;1.05;1.05;;;;;;;1.34;83.50;95797.28;5051328;28;20086;-71
2021/12/01 17:52:15;;;;;;;0.40;0.40;;;;;;;1.34;83.66;95794.59;5049334;28;20032;-72
2021/12/01 17:54:42;;;;;;;0.88;0.88;;;;;;;1.34;83.62;95786.47;5051565;28;20064;-72
2021/12/01 17:57:08;;;;;;;4.40;1.30;;;;;;;1.35;83.60;95773.75;5051379;28;20040;-74
2021/12/01 17:59:35;;;;;;;1.55;1.45;;;;;;;1.40;83.78;95761.13;5051358;28;20403;-78
2021/12/01 18:02:02;;;;;;;2.15;1.83;;;;;;;1.46;83.66;95751.19;5054231;28;20140;-76
2021/12/01 18:04:28;;;;;;;1.17;1.08;;;;;;;1.47;83.59;95735.78;5050850;28;20491;-75
2021/12/01 18:06:54;;;;;;;7.25;1.33;;;;;;;1.48;83.71;95734.72;5053992;28;20052;-78
2021/12/01 18:09:21;;;;;;;2.53;1.13;;;;;;;1.51;83.78;95724.19;5044492;28;20029;-78
2021/12/01 18:11:50;;;;;;;0.88;0.88;;;;;;;1.56;83.74;95704.50;5044445;28;20029;-80
2021/12/01 18:14:17;;;;;;;1.05;1.05;;;;;;;1.54;83.43;95698.56;5049912;28;20033;-77
2021/12/01 18:16:43;;;;;;;9.70;1.67;;;;;;;1.52;83.78;95696.09;5038220;28;20036;-80
2021/12/01 18:19:09;;;;;;;0.82;0.82;;;;;;;1.57;83.85;95706.97;5016324;28;20033;-79
2021/12/01 18:21:36;;;;;;;0.55;0.55;;;;;;;1.63;83.76;95710.53;5034097;28;20041;-79
2021/12/01 18:24:05;;;;;;;3.05;1.98;;;;;;;1.64;83.88;95703.25;5034043;28;20041;-78
2021/12/01 18:26:30;;;;;;;6.40;1.45;;;;;;;1.64;83.90;95728.41;5034314;28;20513;-78
2021/12/01 18:28:56;;;;;;;1.98;1.80;;;;;;;1.62;83.92;95725.16;5034777;28;20076;-74
2021/12/01 18:31:23;;;;;;;0.88;0.88;;;;;;;1.62;84.06;95743.25;5032508;28;20037;-78
2021/12/01 18:33:49;;;;;;;1.40;0.77;;;;;;;1.64;84.14;95741.13;5033126;28;20158;-78
2021/12/01 18:36:15;;;;;;;2.05;0.88;;;;;;;1.65;84.06;95767.91;5032423;28;20057;-79
2021/12/01 18:38:43;;;;;;;0.65;0.65;;;;;;;1.68;84.03;95783.63;5032535;28;20470;-79
2021/12/01 18:41:09;;;;;;;0.88;0.85;;;;;;;1.70;84.10;95792.31;5032912;28;20404;-79
2021/12/01 18:43:35;;;;;;;1.08;1.05;;;;;;;1.71;84.09;95806.66;5032840;28;20040;-77
2021/12/01 18:46:01;;;;;;;2.40;1.67;;;;;;;1.74;84.09;95798.84;5033095;28;20626;-79
2021/12/01 18:48:27;;;;;;;0.75;0.75;;;;;;;1.77;83.91;95791.28;5033792;28;20036;-78
2021/12/01 18:50:53;;;;;;;1.33;1.10;;;;;;;1.77;83.97;95785.88;5034331;28;20041;-78
2021/12/01 18:53:19;;;;;;;1.27;1.17;;;;;;;1.78;84.08;95782.13;5033746;28;20044;-80
2021/12/01 18:55:45;;;;;;;1.83;1.40;;;;;;;1.79;83.89;95789.16;5032195;28;20033;-78
2021/12/01 18:58:12;;;;;;;0.82;0.82;;;;;;;1.79;83.89;95786.47;5032501;28;20112;-78
2021/12/01 19:00:38;;;;;;;1.75;1.25;;;;;;;1.74;83.84;95781.81;5031963;28;20029;-75
2021/12/01 19:03:06;;;;;;;3.58;1.08;;;;;;;1.81;83.99;95781.59;5032708;28;20122;-78
2021/12/01 19:05:32;;;;;;;4.78;2.15;;;;;;;1.84;84.02;95797.31;5031868;28;20043;-86
2021/12/01 19:07:58;;;;;;;2.88;0.98;;;;;;;1.83;83.97;95798.41;5032951;28;20037;-82
2021/12/01 19:10:28;;;;;;;0.88;0.88;;;;;;;1.84;83.89;95781.94;5033694;28;20041;-82
2021/12/01 19:12:54;;;;;;;2.60;1.48;;;;;;;1.85;83.92;95790.84;5032941;28;20470;-79
2021/12/01 19:15:21;;;;;;;1.73;1.63;;;;;;;1.83;83.86;95799.22;5034229;28;20499;-80
2021/12/01 19:17:47;;;;;;;0.85;0.70;;;;;;;1.87;83.67;95786.00;5034307;28;20029;-81
2021/12/01 19:20:13;;;;;;;1.15;1.15;;;;;;;1.87;83.83;95794.94;5037246;28;20033;-85
2021/12/01 19:22:40;;;;;;;4.05;1.25;;;;;;;1.89;83.78;95781.16;5040261;28;20037;-86
2021/12/01 19:25:12;;;;;;;1.23;0.95;;;;;;;1.90;83.77;95791.72;5040229;28;20040;-87
2021/12/01 19:27:39;;;;;;;1.05;0.85;;;;;;;1.93;83.85;95790.41;5041776;28;20049;-82
2021/12/01 19:30:08;;;;;;;4.57;2.08;;;;;;;1.95;83.77;95790.97;5042342;28;20037;-80
2021/12/01 19:32:34;;;;;;;1.70;1.60;;;;;;;1.95;83.75;95799.09;5025780;28;20052;-81
2021/12/01 19:35:00;;;;;;;0.80;0.80;;;;;;;1.94;83.74;95813.69;5040287;28;20120;-79
2021/12/01 19:37:26;;;;;;;1.05;1.05;;;;;;;1.94;83.84;95813.69;5036411;28;20036;-80
2021/12/01 19:39:52;;;;;;;1.20;0.88;;;;;;;1.96;83.74;95803.44;5036026;28;20034;-79
2021/12/01 19:42:18;;;;;;;3.90;1.25;;;;;;;1.96;83.62;95792.59;5036598;28;20061;-83
2021/12/01 19:44:44;;;;;;;0.93;0.90;;;;;;;1.96;83.63;95799.88;5017990;28;20038;-81
2021/12/01 19:47:11;;;;;;;1.77;1.23;;;;;;;1.97;83.42;95802.34;5035480;28;20419;-82
2021/12/01 19:49:37;;;;;;;1.00;0.85;;;;;;;1.98;83.59;95793.16;5035790;28;20036;-80
2021/12/01 19:52:05;;;;;;;3.63;1.52;;;;;;;2.01;83.72;95772.91;5038507;28;20087;-85
2021/12/01 19:54:31;;;;;;;6.70;1.42;;;;;;;2.04;83.69;95758.84;5038895;28;20045;-86
2021/12/01 19:56:57;;;;;;;3.35;1.95;;;;;;;2.07;83.83;95761.84;5039301;28;20048;-87
2021/12/01 19:59:24;;;;;;;0.45;0.45;;;;;;;2.06;83.82;95757.53;5039922;28;20033;-85
2021/12/01 20:01:50;;;;;;;2.97;1.38;;;;;;;2.10;83.67;95726.16;5022941;28;20152;-86
2021/12/01 20:04:16;;;;;;;1.65;1.50;;;;;;;2.15;83.83;95721.88;5005446;28;20032;-86
2021/12/01 20:06:42;;;;;;;1.33;1.25;;;;;;;2.12;83.82;95717.81;5039548;28;20095;-86
2021/12/01 20:09:10;;;;;;;1.50;1.05;;;;;;;2.10;83.77;95699.09;5037758;28;20025;-85
2021/12/01 20:11:38;;;;;;;1.33;1.08;;;;;;;2.12;84.07;95716.97;5038063;28;20440;-84
2021/12/01 20:14:04;;;;;;;2.08;1.33;;;;;;;2.12;84.01;95723.22;5039785;28;20033;-85
2021/12/01 20:16:30;;;;;;;4.55;1.05;;;;;;;2.14;84.00;95721.06;5039510;28;20043;-85
2021/12/01 20:18:57;;;;;;;0.52;0.52;;;;;;;2.13;84.15;95715.91;5037718;28;20140;-86
2021/12/01 20:21:25;;;;;;;1.05;1.05;;;;;;;2.18;84.05;95716.78;5020498;28;20037;-83
2021/12/01 20:23:55;;;;;;;1.65;1.17;;;;;;;2.21;84.07;95710.00;5037194;28;20447;-82
2021/12/01 20:26:25;;;;;;;7.45;1.20;;;;;;;2.23;84.12;95707.88;5042215;28;20041;-87
2021/12/01 20:28:51;;;;;;;1.42;1.33;;;;;;;2.24;84.21;95712.22;5037990;28;20033;-84
2021/12/01 20:31:17;;;;;;;5.57;1.42;;;;;;;2.29;84.26;95704.13;5037719;28;20471;-82
2021/12/01 20:33:46;;;;;;;1.45;1.25;;;;;;;2.34;84.22;95701.47;5036336;28;20034;-78
2021/12/01 20:36:13;;;;;;;2.42;0.88;;;;;;;2.36;84.21;95696.59;5044499;28;20068;-85
2021/12/01 20:38:46;;;;;;;1.67;1.00;;;;;;;2.36;84.10;95693.09;5050121;28;20451;-85
2021/12/01 20:41:12;;;;;;;0.70;0.70;;;;;;;2.39;84.12;95673.63;5053681;28;20017;-84
2021/12/01 20:43:40;;;;;;;4.38;1.10;;;;;;;2.38;84.00;95677.38;5057234;28;20025;-85
2021/12/01 20:46:29;;;;;;;1.38;1.27;;;;;;;2.36;84.17;95666.00;5039561;28;20029;-86
2021/12/01 20:57:01;;;;;;;1.77;1.58;;;;;;;2.42;84.19;95682.03;5033668;28;20555;-75
2021/12/01 21:02:14;;;;;;;1.55;1.40;;;;;;;2.41;84.34;95672.25;5033295;28;20037;-74
2021/12/01 21:04:41;;;;;;;2.63;1.25;;;;;;;2.45;84.32;95678.78;5033860;28;20048;-76
2021/12/01 21:07:08;;;;;;;1.90;1.65;;;;;;;2.49;84.36;95680.97;5033713;28;20037;-74
2021/12/01 21:09:50;;;;;;;0.68;0.68;;;;;;;2.47;84.33;95683.94;5038689;28;20072;-85
2021/12/01 21:12:18;;;;;;;0.98;0.93;;;;;;;2.45;84.29;95678.78;5037553;28;20417;-82
2021/12/01 21:14:44;;;;;;;1.33;0.93;;;;;;;2.48;84.31;95679.38;5036486;28;20415;-82
2021/12/01 21:17:10;;;;;;;1.88;0.93;;;;;;;2.49;84.41;95689.09;5035744;28;20029;-82
2021/12/01 21:19:36;;;;;;;1.25;1.00;;;;;;;2.47;84.34;95686.66;5017048;28;20060;-82
2021/12/01 21:22:12;;;;;;;1.20;0.60;;;;;;;2.44;84.33;95681.75;5036563;28;20029;-83
2021/12/01 21:24:39;;;;;;;2.80;1.15;;;;;;;2.43;84.44;95680.94;5035014;28;20456;-81
2021/12/01 21:27:08;;;;;;;1.45;1.00;;;;;;;2.44;84.44;95677.19;5034211;28;20033;-82
2021/12/01 21:29:36;;;;;;;2.88;1.67;;;;;;;2.41;84.35;95687.69;5034499;28;20036;-81
2021/12/01 21:32:13;;;;;;;1.00;1.00;;;;;;;2.39;84.49;95690.66;5033944;28;20133;-81
2021/12/01 21:34:44;;;;;;;2.55;1.35;;;;;;;2.36;84.66;95674.94;5034946;28;20419;-83
2021/12/01 21:37:10;;;;;;;0.85;0.73;;;;;;;2.37;84.67;95675.75;5035732;28;20037;-83
2021/12/01 21:39:38;;;;;;;3.72;2.00;;;;;;;2.39;84.71;95669.00;5035851;28;20036;-74
2021/12/01 21:42:05;;;;;;;1.08;1.08;;;;;;;2.37;84.56;95676.59;5033424;28;20045;-75
2021/12/01 21:44:32;;;;;;;1.55;0.95;;;;;;;2.38;84.54;95666.56;5032872;28;20037;-76
2021/12/01 21:47:03;;;;;;;1.88;1.77;;;;;;;2.36;84.78;95676.84;5016535;28;20037;-75
2021/12/01 21:49:29;;;;;;;1.35;0.93;;;;;;;2.37;84.57;95676.59;5034997;28;20112;-74
2021/12/01 21:51:58;;;;;;;0.43;0.43;;;;;;;2.36;84.58;95687.66;5016858;28;20057;-75
2021/12/01 21:54:29;;;;;;;2.13;1.88;;;;;;;2.37;84.55;95690.13;5033064;28;20037;-78
2021/12/01 21:56:58;;;;;;;0.95;0.80;;;;;;;2.37;84.64;95698.25;5034782;28;20033;-86
2021/12/01 21:59:28;;;;;;;1.60;1.50;;;;;;;2.36;84.64;95691.19;5034939;28;20036;-84
2021/12/01 22:01:54;;;;;;;2.50;1.77;;;;;;;2.37;84.52;95681.16;5035925;28;20127;-81
2021/12/01 22:04:24;;;;;;;1.95;1.42;;;;;;;2.37;84.65;95682.00;5032927;28;20045;-79
2021/12/01 22:06:51;;;;;;;3.05;1.30;;;;;;;2.38;84.50;95680.91;5033817;28;20045;-83
2021/12/01 22:09:17;;;;;;;0.93;0.93;;;;;;;2.41;84.58;95677.66;5034118;28;20492;-81
2021/12/01 22:11:43;;;;;;;2.10;0.93;;;;;;;2.44;84.62;95681.75;5033676;28;20081;-79
2021/12/01 22:14:09;;;;;;;2.53;1.48;;;;;;;2.43;84.53;95686.38;5034680;28;20040;-83
2021/12/01 22:16:35;;;;;;;3.58;1.50;;;;;;;2.45;84.46;95694.22;5034512;28;20033;-80
2021/12/01 22:19:01;;;;;;;2.22;1.48;;;;;;;2.44;84.43;95688.00;5034867;28;20037;-80
2021/12/01 22:21:35;;;;;;;1.02;0.98;;;;;;;2.43;84.58;95691.78;5035512;28;20467;-80
2021/12/01 22:24:07;;;;;;;1.27;1.07;;;;;;;2.48;84.36;95684.78;5035575;28;20037;-81
2021/12/01 22:26:35;;;;;;;1.80;1.33;;;;;;;2.48;84.28;95682.88;5036088;28;20033;-82
2021/12/01 22:29:07;;;;;;;1.80;0.77;;;;;;;2.49;84.50;95678.25;5033857;28;20479;-81
2021/12/01 22:31:34;;;;;;;2.17;1.00;;;;;;;2.51;84.39;95663.41;5033789;28;20025;-82
2021/12/01 22:34:02;;;;;;;5.97;1.73;;;;;;;2.54;84.42;95670.19;5032255;28;20061;-81
2021/12/01 22:36:32;;;;;;;1.27;0.95;;;;;;;2.56;84.44;95670.72;5032919;28;20044;-85
2021/12/01 22:39:01;;;;;;;0.80;0.80;;;;;;;2.57;84.15;95675.09;5016188;28;20038;-79
2021/12/01 22:41:27;;;;;;;2.35;1.17;;;;;;;2.56;84.24;95684.28;5032733;28;20050;-80
2021/12/01 22:43:54;;;;;;;3.38;2.28;;;;;;;2.60;84.24;95685.38;5032673;28;20032;-79
2021/12/01 22:46:20;;;;;;;3.15;1.67;;;;;;;2.61;84.17;95695.97;5033182;28;20381;-80
2021/12/01 22:48:46;;;;;;;1.85;1.17;;;;;;;2.61;84.15;95689.75;5034166;28;20472;-81
2021/12/01 22:51:12;;;;;;;1.95;1.25;;;;;;;2.62;84.08;95683.22;5034215;28;20072;-80
2021/12/01 22:53:38;;;;;;;2.42;1.27;;;;;;;2.62;84.22;95685.94;5034552;28;20407;-82
2021/12/01 22:56:10;;;;;;;0.73;0.73;;;;;;;2.62;84.09;95691.34;5037018;28;20033;-76
2021/12/01 22:58:48;;;;;;;1.45;1.17;;;;;;;2.65;84.18;95684.59;5038771;28;20049;-79
2021/12/01 23:01:15;;;;;;;6.50;2.90;;;;;;;2.66;84.20;95691.66;5037304;28;20041;-78
2021/12/01 23:03:47;;;;;;;1.80;1.23;;;;;;;2.66;84.06;95678.91;5036731;28;20051;-78
2021/12/01 23:06:17;;;;;;;1.00;0.95;;;;;;;2.66;84.08;95673.50;5036656;28;20558;-78
2021/12/01 23:08:43;;;;;;;5.10;2.78;;;;;;;2.65;84.11;95674.59;5036559;28;20045;-80
2021/12/01 23:11:08;;;;;;;0.68;0.68;;;;;;;2.65;84.11;95677.31;5036580;28;20099;-76
2021/12/01 23:13:35;;;;;;;1.33;0.93;;;;;;;2.66;83.97;95678.13;5036041;28;20110;-74
2021/12/01 23:16:00;;;;;;;1.40;1.30;;;;;;;2.66;83.92;95670.78;5036096;28;20460;-76
2021/12/01 23:18:27;;;;;;;2.45;1.60;;;;;;;2.70;83.76;95666.50;5035634;28;20107;-77
2021/12/01 23:20:54;;;;;;;0.95;0.95;;;;;;;2.70;83.77;95668.41;5036243;28;20040;-76
2021/12/01 23:28:46;;;;;;;1.65;1.23;;;;;;;2.71;83.57;95657.28;5035868;28;20048;-76
2021/12/01 23:31:13;;;;;;;6.47;2.13;;;;;;;2.72;83.48;95661.63;5037272;28;20037;-81
2021/12/01 23:33:50;;;;;;;2.35;1.85;;;;;;;2.73;83.38;95662.44;5038030;28;20112;-82
2021/12/01 23:36:19;;;;;;;3.13;1.77;;;;;;;2.73;83.19;95668.69;5036108;28;20044;-81
2021/12/01 23:38:45;;;;;;;0.60;0.60;;;;;;;2.72;83.22;95672.44;5035676;28;20029;-84
2021/12/01 23:41:11;;;;;;;2.03;1.60;;;;;;;2.72;83.24;95656.19;5035681;28;20042;-77
2021/12/01 23:43:37;;;;;;;0.90;0.60;;;;;;;2.75;83.07;95665.69;5035954;28;20038;-73
2021/12/01 23:51:18;;;;;;;1.05;0.75;;;;;;;2.81;82.71;95672.78;5034991;28;20041;-72
2021/12/01 23:53:49;;;;;;;1.55;1.48;;;;;;;2.85;82.81;95671.19;5036019;28;20042;-72
2021/12/01 23:56:15;;;;;;;1.90;1.80;;;;;;;2.88;82.56;95664.44;5035327;28;20526;-74
2021/12/01 23:58:42;;;;;;;3.20;1.15;;;;;;;2.87;82.57;95665.50;5035263;28;20091;-72
